Terminal Aerodrome Forecast
Issued by NWS

Home | Current Version | Previous Version | Graphics & Text | Print | Product List | Glossary On
Versions: 1 2 3 4 5 6 7 8 9 10 11 12 13 14 15 16 17 18 19 20 21
000
FTUS43 KBIS 221801 AAA
TAFDIK
TAF AMD
KDIK 221801Z 2218/2318 16018G26KT P6SM SCT015
     FM221900 17017G25KT P6SM SCT030
     FM222300 17011KT P6SM BKN150
     FM230800 22004KT P6SM BKN200
     FM231100 31004KT P6SM BKN100
     FM231200 31005KT 6SM -RA OVC045=

USA.gov is the U.S. government's official web portal to all federal, state and local government web resources and services.